ilmateenistus.ee keskkonnaagentuur.ee
EETN Tallinna lennuväli
FTEO31 EETN 010500
TAF EETN 010510Z 0106/0206 03010KT 9999 BKN045 PROB40 TEMPO 0108/0115
    SCT025CB BKN035 TEMPO 0118/0124 09010KT=

METAR EETN 010720Z 05006KT 020V080 CAVOK 14/06 Q1024 NOSIG=
Tallinna lennuväli
EEKA Kärdla lennuväli
FCEO32 EETN 010300 AAA
TAF AMD EEKA 010700Z 0104/0110 CNL=

METAR EEKA 010650Z NIL=
Kärdla lennuväli
EEKE Kuressaare lennuväli
FCEO32 EETN 010500
TAF EEKE 010500Z 0106/0112 VRB02KT CAVOK BECMG 0106/0108 02010KT=

SPECI EEKE 010735Z AUTO VRB04KT 9999NDV FEW003 18/07 Q1024=
Kuressaare lennuväli
EEPU Pärnu lennuväli
METAR EEPU 010650Z 04004KT 360V110 CAVOK 16/05 Q1023=
Pärnu lennuväli
EETU Tartu lennuväli
METAR EETU 010720Z 04010KT 010V070 CAVOK 13/02 Q1023=
Tartu lennuväli
EEEI Ämari lennuväli
METAR EEEI 010650Z 01005KT 330V050 CAVOK 16/07 Q1024 NOSIG=
Ämari lennuväli